createdAt,value
2022-12-31T00:04:17.708Z,31.40
2022-12-31T00:09:39.540Z,28.38
2022-12-31T00:15:01.414Z,31.75
2022-12-31T00:20:23.327Z,29.70
2022-12-31T00:25:45.156Z,29.48
2022-12-31T00:31:10.088Z,28.17
2022-12-31T00:36:37.596Z,30.73
2022-12-31T00:41:59.603Z,30.02
2022-12-31T00:47:21.427Z,27.73
2022-12-31T00:52:43.303Z,27.83
2022-12-31T00:58:05.250Z,29.17
2022-12-31T01:03:27.105Z,26.88
2022-12-31T01:08:51.181Z,26.15
2022-12-31T01:14:16.801Z,28.23
2022-12-31T01:19:38.647Z,27.47
2022-12-31T01:25:00.568Z,26.65
2022-12-31T01:30:22.405Z,27.25
2022-12-31T01:35:44.277Z,26.70
2022-12-31T01:41:06.799Z,26.40
2022-12-31T01:46:49.958Z,25.48
2022-12-31T01:52:32.605Z,26.98
2022-12-31T01:57:59.132Z,24.20
2022-12-31T02:03:23.466Z,24.08
2022-12-31T02:08:45.916Z,24.45
2022-12-31T02:14:18.729Z,23.52
2022-12-31T02:19:43.631Z,23.15
2022-12-31T02:25:50.626Z,23.45
2022-12-31T02:31:18.321Z,22.83
2022-12-31T02:36:44.454Z,21.80
2022-12-31T02:42:06.770Z,23.10
2022-12-31T02:48:06.343Z,22.45
2022-12-31T02:53:46.870Z,22.20
2022-12-31T02:59:13.803Z,22.75
2022-12-31T03:04:35.721Z,20.27
2022-12-31T03:09:58.050Z,20.88
2022-12-31T03:15:29.148Z,18.17
2022-12-31T03:20:51.452Z,19.60
2022-12-31T03:26:13.421Z,17.70
2022-12-31T03:31:35.314Z,17.67
2022-12-31T03:36:57.248Z,15.68
2022-12-31T03:42:19.096Z,15.50
2022-12-31T03:47:40.963Z,15.75
2022-12-31T03:53:03.185Z,13.50
2022-12-31T03:58:25.014Z,13.02
2022-12-31T04:03:46.803Z,14.60
2022-12-31T04:09:08.822Z,12.95
2022-12-31T04:14:30.684Z,13.15
2022-12-31T04:19:52.567Z,12.60
2022-12-31T04:25:14.399Z,12.52
2022-12-31T04:30:36.269Z,12.10
2022-12-31T04:36:02.019Z,12.65
2022-12-31T04:41:23.881Z,11.97
2022-12-31T04:46:45.794Z,12.93
2022-12-31T04:52:07.622Z,11.82
2022-12-31T04:57:29.477Z,12.07
2022-12-31T05:02:51.387Z,12.65
2022-12-31T05:08:14.016Z,12.70
2022-12-31T05:13:35.980Z,11.90
2022-12-31T05:18:57.808Z,12.02
2022-12-31T05:24:19.626Z,12.68
2022-12-31T05:29:41.450Z,13.40
2022-12-31T05:35:03.864Z,12.48
2022-12-31T05:40:25.735Z,13.35
2022-12-31T05:45:47.561Z,13.02
2022-12-31T05:51:09.447Z,12.27
2022-12-31T05:56:31.542Z,14.52
2022-12-31T06:01:53.405Z,14.10
2022-12-31T06:07:15.363Z,13.45
2022-12-31T06:12:37.137Z,13.50
2022-12-31T06:17:59.019Z,13.70
2022-12-31T06:23:20.833Z,14.27
2022-12-31T06:28:42.773Z,13.55
2022-12-31T06:34:04.665Z,14.20
2022-12-31T06:39:26.753Z,13.45
2022-12-31T06:44:48.578Z,13.77
2022-12-31T06:50:10.526Z,13.85
2022-12-31T06:55:32.837Z,12.75
2022-12-31T07:01:07.225Z,12.43
2022-12-31T07:06:53.994Z,15.68
2022-12-31T07:12:21.444Z,20.00
2022-12-31T07:18:01.534Z,21.42
2022-12-31T07:23:23.632Z,17.73
2022-12-31T07:29:00.827Z,14.82
2022-12-31T07:34:47.283Z,12.10
2022-12-31T07:45:52.226Z,11.32
2022-12-31T07:51:14.411Z,11.32
2022-12-31T07:56:36.417Z,12.18
2022-12-31T08:02:17.805Z,10.48
2022-12-31T08:08:41.217Z,10.30
2022-12-31T08:14:03.238Z,10.90
2022-12-31T08:19:30.674Z,11.02
2022-12-31T08:25:04.661Z,10.13
2022-12-31T08:30:49.861Z,11.30
2022-12-31T08:36:20.516Z,10.13
2022-12-31T08:41:48.174Z,9.77
2022-12-31T08:47:38.478Z,9.80
2022-12-31T08:53:00.972Z,8.43
2022-12-31T08:58:34.150Z,7.88
2022-12-31T09:03:59.052Z,9.27
2022-12-31T09:09:49.167Z,7.72
2022-12-31T09:15:25.180Z,7.82
2022-12-31T09:20:47.450Z,8.45
2022-12-31T09:26:37.045Z,7.45
2022-12-31T09:32:22.942Z,7.60
2022-12-31T09:37:54.711Z,7.53
2022-12-31T09:43:37.861Z,7.60
2022-12-31T09:49:11.587Z,7.20
2022-12-31T09:54:53.643Z,6.63
2022-12-31T10:00:39.085Z,7.75
2022-12-31T10:06:26.057Z,6.57
2022-12-31T10:12:17.016Z,6.50
2022-12-31T10:17:56.241Z,6.50
2022-12-31T10:23:36.214Z,6.18
2022-12-31T10:29:49.584Z,5.90
2022-12-31T10:35:43.584Z,6.80
2022-12-31T10:41:42.519Z,6.35
2022-12-31T10:47:23.151Z,6.80
2022-12-31T10:53:06.527Z,6.50
2022-12-31T10:59:09.633Z,5.70
2022-12-31T11:04:52.413Z,4.97
2022-12-31T11:10:51.450Z,5.63
2022-12-31T11:16:25.537Z,5.82
2022-12-31T11:22:05.802Z,5.85
2022-12-31T11:27:49.405Z,5.45
2022-12-31T11:33:17.478Z,5.00
2022-12-31T11:38:57.844Z,5.32
2022-12-31T11:44:41.215Z,5.43
2022-12-31T11:50:15.299Z,5.00
2022-12-31T11:55:41.478Z,4.82
2022-12-31T12:01:03.279Z,4.80
2022-12-31T12:06:29.964Z,5.10
2022-12-31T12:17:27.776Z,5.60
2022-12-31T12:22:55.266Z,5.05
2022-12-31T12:28:26.326Z,4.70
2022-12-31T12:33:50.448Z,4.25
2022-12-31T12:39:20.986Z,4.50
2022-12-31T12:44:43.101Z,4.50
2022-12-31T12:50:13.773Z,4.57
2022-12-31T12:55:53.623Z,4.85
2022-12-31T13:01:54.018Z,4.78
2022-12-31T13:07:31.398Z,5.25
2022-12-31T13:13:24.698Z,4.45
2022-12-31T13:19:08.679Z,5.18
2022-12-31T13:24:39.595Z,5.65
2022-12-31T13:30:03.770Z,5.05
2022-12-31T13:35:34.200Z,4.70
2022-12-31T13:41:17.652Z,4.68
2022-12-31T13:46:53.111Z,4.20
2022-12-31T13:52:44.291Z,5.00
2022-12-31T13:58:34.007Z,4.05
2022-12-31T14:04:03.407Z,5.35
2022-12-31T14:09:28.074Z,4.38
2022-12-31T14:15:20.859Z,4.68
2022-12-31T14:21:15.785Z,4.65
2022-12-31T14:26:44.047Z,4.93
2022-12-31T14:32:37.495Z,5.05
2022-12-31T14:38:05.792Z,5.03
2022-12-31T14:43:36.664Z,5.22
2022-12-31T14:49:21.109Z,4.25
2022-12-31T14:54:42.955Z,4.28
2022-12-31T15:00:36.976Z,4.47
2022-12-31T15:06:15.061Z,3.50
2022-12-31T15:11:46.825Z,3.75
2022-12-31T15:17:14.601Z,4.20
2022-12-31T15:22:48.215Z,4.28
2022-12-31T15:28:39.105Z,4.82
2022-12-31T15:34:06.714Z,8.20
2022-12-31T15:39:31.600Z,4.45
2022-12-31T15:45:04.029Z,4.97
2022-12-31T15:50:26.162Z,3.80
2022-12-31T15:55:53.066Z,3.70
2022-12-31T16:01:20.222Z,3.92
2022-12-31T16:06:46.074Z,3.75
2022-12-31T16:12:23.676Z,3.85
2022-12-31T16:18:09.879Z,3.95
2022-12-31T16:23:31.769Z,4.13
2022-12-31T16:28:56.821Z,4.32
2022-12-31T16:34:21.572Z,4.00
2022-12-31T16:39:58.431Z,3.70
2022-12-31T16:45:37.108Z,4.45
2022-12-31T16:50:59.124Z,4.18
2022-12-31T16:56:31.454Z,4.10
2022-12-31T17:01:54.847Z,4.13
2022-12-31T17:07:31.829Z,3.90
2022-12-31T17:18:38.815Z,3.78
2022-12-31T17:24:04.355Z,4.43
2022-12-31T17:29:26.716Z,6.13
2022-12-31T17:34:50.389Z,4.25
2022-12-31T17:40:52.428Z,4.65
2022-12-31T17:46:16.645Z,3.78
2022-12-31T17:51:41.276Z,3.60
2022-12-31T17:57:11.774Z,4.28
2022-12-31T18:02:33.980Z,4.28
2022-12-31T18:07:55.942Z,4.68
2022-12-31T18:13:24.152Z,3.80
2022-12-31T18:18:45.997Z,4.38
2022-12-31T18:24:14.361Z,4.22
2022-12-31T18:29:36.268Z,4.30
2022-12-31T18:34:58.318Z,5.35
2022-12-31T18:40:20.191Z,4.57
2022-12-31T18:45:42.196Z,4.78
2022-12-31T18:51:04.135Z,5.00
2022-12-31T18:56:26.113Z,4.70
2022-12-31T19:01:48.116Z,5.18
2022-12-31T19:07:10.052Z,5.07
2022-12-31T19:12:31.916Z,4.72
2022-12-31T19:17:54.060Z,4.90
2022-12-31T19:23:19.409Z,4.35
2022-12-31T19:28:41.341Z,5.07
2022-12-31T19:34:03.222Z,4.28
2022-12-31T19:39:25.108Z,4.75
2022-12-31T19:44:47.024Z,4.78
2022-12-31T19:50:15.695Z,4.85
2022-12-31T19:55:37.742Z,4.88
2022-12-31T20:01:02.850Z,5.00
2022-12-31T20:06:25.540Z,4.20
2022-12-31T20:11:47.462Z,4.82
2022-12-31T20:17:09.545Z,4.47
2022-12-31T20:22:31.481Z,4.03
2022-12-31T20:27:54.360Z,4.57
2022-12-31T20:33:19.152Z,5.00
2022-12-31T20:38:41.864Z,4.95
2022-12-31T20:44:04.056Z,4.40
2022-12-31T20:49:52.048Z,5.35
2022-12-31T20:55:08.384Z,5.15
2022-12-31T21:00:30.391Z,5.00
2022-12-31T21:05:54.650Z,6.07
2022-12-31T21:11:17.016Z,5.60
2022-12-31T21:16:38.935Z,6.05
2022-12-31T21:22:00.928Z,5.38
2022-12-31T21:27:22.873Z,6.88
2022-12-31T21:32:44.710Z,5.07
2022-12-31T21:38:07.521Z,4.70
2022-12-31T21:43:30.057Z,5.18
2022-12-31T21:48:56.825Z,4.75
2022-12-31T21:54:18.720Z,4.60
2022-12-31T21:59:46.375Z,4.43
2022-12-31T22:05:18.478Z,3.72
2022-12-31T22:10:51.979Z,4.75
2022-12-31T22:16:14.999Z,6.13
2022-12-31T22:21:37.031Z,4.68
2022-12-31T22:26:58.888Z,4.40
2022-12-31T22:32:40.943Z,4.88
2022-12-31T22:38:09.855Z,5.15
2022-12-31T22:43:35.743Z,5.90
2022-12-31T22:48:59.943Z,4.72
2022-12-31T22:54:21.906Z,5.75
2022-12-31T22:59:43.876Z,20.42
2022-12-31T23:05:14.957Z,40.08
2022-12-31T23:10:38.382Z,40.88
2022-12-31T23:16:00.372Z,20.13
2022-12-31T23:21:22.326Z,16.30
2022-12-31T23:26:44.316Z,15.88
2022-12-31T23:32:07.505Z,15.63
2022-12-31T23:37:29.475Z,15.25
2022-12-31T23:42:51.330Z,13.57
2022-12-31T23:48:13.183Z,18.30
2022-12-31T23:53:37.549Z,11.38
2022-12-31T23:59:00.115Z,9.07
